Stavropol Shpakovskoye Airport
URMT : now visible

Airfield :











YOU CAN JOIN US ON...

 
LOGIN :

Register | Disclaimer

   EN    FR    IT 

 









Legend :    VFR   Marginal VFR   IFR   Intensive IFR   Very Intensive IFR
Visi :
Ceiling :
>= 8 km
>= 3000ft
5 to 8 km
1000 to 3000 ft
1500m to 5 km
500 to 1000 ft
800 to 1500m
200 to 500 ft
< 800m
< 200 ft
Symbols :   Thunderstorms  Fog  Heavy snow  Heavy precipitations  Wind > 20 kt






- Airport Elevation : 1486 ft
- IATA code : STW


URMT - Stavropol Shpakovskoye

CURRENT METAR :
  • 041830Z 32004MPS CAVOK 10/M01 Q1022 R25/010070 NOSIG RMK QFE728

EXPIRED METARs :
  • 041800Z 32003MPS CAVOK 10/M01 Q1022 R25/010070 NOSIG RMK QFE728
  • 041730Z 33003MPS CAVOK 10/M01 Q1022 R25/010070 NOSIG RMK QFE728
  • 041700Z 33003MPS CAVOK 11/M01 Q1022 R25/010070 NOSIG RMK QFE728
  • 041630Z 33004MPS CAVOK 12/00 Q1022 R25/010070 NOSIG RMK QFE727
  • 041600Z 32003MPS 300V020 CAVOK 13/M00 Q1021 R25/010070 NOSIG RMK QFE727
  • 041530Z 31003MPS CAVOK 13/M00 Q1021 R25/010070 NOSIG RMK QFE727

TAF TAF URMT
Valid from the 04 at 18:00 until the 05 at 03:00 UTC


041700Z 0418/0503 32003G08MPS 9999 SCT020



MET'MAP, your aeronautical weather chart ! - Copyright ORBIFLY December 2007 - Disclaimer

ORBIFLY MET'MAP TEAM :

Programming & Development : Alexandra Zaïnal
Concept & original design : Baudouin d'Aumeries
Assistance for programming : Marc-Olivier Méhu
Technical & hardware support : Manuel Goepfert

Contact : metmap@orbifly.com




SOURCES & CREDITS :

   NOAA       Earth
Advisory